TimeMST,TemperatureF,Dew PointF,Humidity,Sea Level PressureIn,VisibilityMPH,Wind Direction,Wind SpeedMPH,Gust SpeedMPH,PrecipitationIn,Events,Conditions,WindDirDegrees,DateUTC
12:53 AM,33.1,16.0,50,30.08,10.0,WSW,16.1,-,N/A,,Clear,240,2014-01-19 07:53:00
1:53 AM,37.9,17.1,43,30.06,10.0,WSW,19.6,-,N/A,,Clear,240,2014-01-19 08:53:00
2:53 AM,37.0,16.0,42,30.05,10.0,WSW,18.4,24.2,N/A,,Clear,240,2014-01-19 09:53:00
3:53 AM,35.1,15.1,44,30.03,10.0,WSW,16.1,-,N/A,,Clear,250,2014-01-19 10:53:00
4:53 AM,33.1,15.1,48,30.04,10.0,West,13.8,-,N/A,,Clear,270,2014-01-19 11:53:00
5:53 AM,30.0,14.0,51,30.05,10.0,West,11.5,-,N/A,,Clear,260,2014-01-19 12:53:00
6:53 AM,30.9,12.9,47,30.06,10.0,West,11.5,-,N/A,,Clear,280,2014-01-19 13:53:00
7:53 AM,33.1,12.9,43,30.06,10.0,WNW,10.4,-,N/A,,Clear,290,2014-01-19 14:53:00
8:53 AM,44.1,14.0,30,30.04,10.0,West,9.2,-,N/A,,Clear,260,2014-01-19 15:53:00
9:53 AM,54.0,12.9,20,30.03,10.0,West,15.0,-,N/A,,Clear,280,2014-01-19 16:53:00
10:53 AM,62.1,10.9,13,29.99,10.0,WNW,9.2,-,N/A,,Clear,290,2014-01-19 17:53:00
11:53 AM,66.0,12.0,12,29.94,10.0,NNW,21.9,33.4,N/A,,Clear,330,2014-01-19 18:53:00
12:53 PM,66.9,12.0,12,29.90,10.0,NNW,21.9,29.9,N/A,,Clear,330,2014-01-19 19:53:00
1:53 PM,66.9,12.0,12,29.88,10.0,NNW,19.6,-,N/A,,Clear,340,2014-01-19 20:53:00
2:53 PM,66.9,12.9,12,29.88,10.0,NNW,15.0,-,N/A,,Clear,330,2014-01-19 21:53:00
3:53 PM,64.0,14.0,14,29.90,10.0,NNW,10.4,-,N/A,,Clear,330,2014-01-19 22:53:00
4:53 PM,48.0,12.0,24,29.94,10.0,WNW,5.8,-,N/A,,Clear,290,2014-01-19 23:53:00
5:53 PM,43.0,12.9,30,29.97,10.0,WSW,8.1,-,N/A,,Clear,250,2014-01-20 00:53:00
6:53 PM,37.9,12.9,36,29.98,10.0,WSW,8.1,-,N/A,,Clear,250,2014-01-20 01:53:00
7:53 PM,36.0,12.0,37,29.97,10.0,WSW,10.4,-,N/A,,Clear,250,2014-01-20 02:53:00
8:53 PM,35.1,12.0,39,29.95,10.0,WSW,8.1,-,N/A,,Clear,240,2014-01-20 03:53:00
9:53 PM,30.0,10.0,43,29.95,10.0,West,10.4,-,N/A,,Clear,260,2014-01-20 04:53:00
10:53 PM,33.1,10.9,40,29.93,10.0,West,10.4,-,N/A,,Clear,260,2014-01-20 05:53:00
11:53 PM,28.9,10.0,45,29.91,10.0,West,5.8,-,N/A,,Clear,260,2014-01-20 06:53:00